sensor_id;sensor_type;location;lat;lon;timestamp;temperature;humidity
43963;DHT22;29622;45.534;9.242;2022-08-19T00:04:08;22.80;57.00
43963;DHT22;29622;45.534;9.242;2022-08-19T00:09:11;23.10;56.90
43963;DHT22;29622;45.534;9.242;2022-08-19T00:14:14;23.10;56.50
43963;DHT22;29622;45.534;9.242;2022-08-19T00:19:16;23.00;56.60
43963;DHT22;29622;45.534;9.242;2022-08-19T00:24:17;22.80;56.70
43963;DHT22;29622;45.534;9.242;2022-08-19T00:29:20;22.70;57.00
43963;DHT22;29622;45.534;9.242;2022-08-19T00:34:21;22.70;57.00
43963;DHT22;29622;45.534;9.242;2022-08-19T00:39:22;22.70;57.10
43963;DHT22;29622;45.534;9.242;2022-08-19T00:44:27;22.70;57.10
43963;DHT22;29622;45.534;9.242;2022-08-19T00:49:35;22.70;57.10
43963;DHT22;29622;45.534;9.242;2022-08-19T00:54:36;22.70;57.10
43963;DHT22;29622;45.534;9.242;2022-08-19T00:59:38;22.70;57.10
43963;DHT22;29622;45.534;9.242;2022-08-19T01:04:39;22.60;57.00
43963;DHT22;29622;45.534;9.242;2022-08-19T01:09:40;22.60;57.10
43963;DHT22;29622;45.534;9.242;2022-08-19T01:14:40;22.50;57.10
43963;DHT22;29622;45.534;9.242;2022-08-19T01:19:41;22.50;57.00
43963;DHT22;29622;45.534;9.242;2022-08-19T01:24:43;22.50;56.90
43963;DHT22;29622;45.534;9.242;2022-08-19T01:29:44;22.50;56.90
43963;DHT22;29622;45.534;9.242;2022-08-19T01:34:48;22.50;57.00
43963;DHT22;29622;45.534;9.242;2022-08-19T01:39:48;22.60;56.90
43963;DHT22;29622;45.534;9.242;2022-08-19T01:44:49;22.70;56.70
43963;DHT22;29622;45.534;9.242;2022-08-19T01:49:50;22.70;56.70
43963;DHT22;29622;45.534;9.242;2022-08-19T01:54:50;22.60;56.70
43963;DHT22;29622;45.534;9.242;2022-08-19T01:59:51;22.60;56.80
43963;DHT22;29622;45.534;9.242;2022-08-19T02:04:52;22.60;57.20
43963;DHT22;29622;45.534;9.242;2022-08-19T02:09:53;22.60;56.60
43963;DHT22;29622;45.534;9.242;2022-08-19T02:14:55;22.70;56.70
43963;DHT22;29622;45.534;9.242;2022-08-19T02:19:55;22.80;56.40
43963;DHT22;29622;45.534;9.242;2022-08-19T02:24:56;23.10;56.20
43963;DHT22;29622;45.534;9.242;2022-08-19T02:29:57;23.10;56.00
43963;DHT22;29622;45.534;9.242;2022-08-19T02:34:58;23.00;56.20
43963;DHT22;29622;45.534;9.242;2022-08-19T02:39:59;23.10;56.00
43963;DHT22;29622;45.534;9.242;2022-08-19T02:44:59;22.90;56.10
43963;DHT22;29622;45.534;9.242;2022-08-19T02:50:01;22.90;56.50
43963;DHT22;29622;45.534;9.242;2022-08-19T02:55:02;23.10;56.00
43963;DHT22;29622;45.534;9.242;2022-08-19T03:00:04;22.80;56.20
43963;DHT22;29622;45.534;9.242;2022-08-19T03:05:06;22.70;56.40
43963;DHT22;29622;45.534;9.242;2022-08-19T03:10:07;22.60;56.40
43963;DHT22;29622;45.534;9.242;2022-08-19T03:15:08;22.50;56.60
43963;DHT22;29622;45.534;9.242;2022-08-19T03:20:09;22.50;56.50
43963;DHT22;29622;45.534;9.242;2022-08-19T03:25:10;22.50;56.40
43963;DHT22;29622;45.534;9.242;2022-08-19T03:30:12;22.60;56.40
43963;DHT22;29622;45.534;9.242;2022-08-19T03:35:13;22.90;56.30
43963;DHT22;29622;45.534;9.242;2022-08-19T03:40:13;23.10;55.80
43963;DHT22;29622;45.534;9.242;2022-08-19T03:45:14;23.00;56.00
43963;DHT22;29622;45.534;9.242;2022-08-19T03:50:15;23.40;55.90
43963;DHT22;29622;45.534;9.242;2022-08-19T03:55:16;23.60;55.20
43963;DHT22;29622;45.534;9.242;2022-08-19T04:00:16;23.70;55.50
43963;DHT22;29622;45.534;9.242;2022-08-19T04:05:17;24.00;55.10
43963;DHT22;29622;45.534;9.242;2022-08-19T04:10:18;24.30;54.90
43963;DHT22;29622;45.534;9.242;2022-08-19T04:15:18;24.50;54.30
43963;DHT22;29622;45.534;9.242;2022-08-19T04:20:20;24.70;54.50
43963;DHT22;29622;45.534;9.242;2022-08-19T04:25:21;25.00;53.90
43963;DHT22;29622;45.534;9.242;2022-08-19T04:30:21;24.60;54.00
43963;DHT22;29622;45.534;9.242;2022-08-19T04:35:22;24.10;54.70
43963;DHT22;29622;45.534;9.242;2022-08-19T04:40:23;23.70;55.30
43963;DHT22;29622;45.534;9.242;2022-08-19T04:45:43;23.40;55.50
43963;DHT22;29622;45.534;9.242;2022-08-19T04:50:43;23.30;55.80
43963;DHT22;29622;45.534;9.242;2022-08-19T04:55:44;23.10;55.90
43963;DHT22;29622;45.534;9.242;2022-08-19T05:00:45;23.00;56.10
43963;DHT22;29622;45.534;9.242;2022-08-19T05:05:46;23.20;56.10
43963;DHT22;29622;45.534;9.242;2022-08-19T05:10:49;23.40;55.80
43963;DHT22;29622;45.534;9.242;2022-08-19T05:15:54;23.40;55.80
43963;DHT22;29622;45.534;9.242;2022-08-19T05:20:55;23.40;55.80
43963;DHT22;29622;45.534;9.242;2022-08-19T05:26:14;23.70;55.60
43963;DHT22;29622;45.534;9.242;2022-08-19T05:31:14;23.80;55.40
43963;DHT22;29622;45.534;9.242;2022-08-19T05:36:15;23.90;55.40
43963;DHT22;29622;45.534;9.242;2022-08-19T05:41:16;23.90;55.40
43963;DHT22;29622;45.534;9.242;2022-08-19T05:46:18;24.00;55.30
43963;DHT22;29622;45.534;9.242;2022-08-19T05:51:18;24.10;55.40
43963;DHT22;29622;45.534;9.242;2022-08-19T05:56:19;24.10;55.10
43963;DHT22;29622;45.534;9.242;2022-08-19T06:01:20;23.70;55.40
43963;DHT22;29622;45.534;9.242;2022-08-19T06:06:21;23.50;55.80
43963;DHT22;29622;45.534;9.242;2022-08-19T06:16:25;23.10;56.30
43963;DHT22;29622;45.534;9.242;2022-08-19T06:21:27;23.10;56.40
43963;DHT22;29622;45.534;9.242;2022-08-19T06:26:28;23.00;56.40
43963;DHT22;29622;45.534;9.242;2022-08-19T06:31:29;23.00;56.40
43963;DHT22;29622;45.534;9.242;2022-08-19T06:36:33;22.90;56.40
43963;DHT22;29622;45.534;9.242;2022-08-19T06:41:35;22.90;56.70
43963;DHT22;29622;45.534;9.242;2022-08-19T06:46:36;22.90;56.70
43963;DHT22;29622;45.534;9.242;2022-08-19T06:51:37;23.40;56.40
43963;DHT22;29622;45.534;9.242;2022-08-19T06:56:39;23.60;55.70
43963;DHT22;29622;45.534;9.242;2022-08-19T07:01:41;23.50;56.00
43963;DHT22;29622;45.534;9.242;2022-08-19T07:06:42;23.50;56.10
43963;DHT22;29622;45.534;9.242;2022-08-19T07:11:46;23.20;56.40
43963;DHT22;29622;45.534;9.242;2022-08-19T07:16:48;23.10;56.70
43963;DHT22;29622;45.534;9.242;2022-08-19T07:21:49;23.10;56.70
43963;DHT22;29622;45.534;9.242;2022-08-19T07:26:53;23.10;56.90
43963;DHT22;29622;45.534;9.242;2022-08-19T07:31:55;23.40;56.50
43963;DHT22;29622;45.534;9.242;2022-08-19T07:36:59;23.60;56.20
43963;DHT22;29622;45.534;9.242;2022-08-19T07:42:00;23.90;56.00
43963;DHT22;29622;45.534;9.242;2022-08-19T07:47:01;24.30;55.80
43963;DHT22;29622;45.534;9.242;2022-08-19T07:52:05;24.70;55.10
43963;DHT22;29622;45.534;9.242;2022-08-19T07:57:06;25.00;54.80
43963;DHT22;29622;45.534;9.242;2022-08-19T08:02:07;25.50;54.30
43963;DHT22;29622;45.534;9.242;2022-08-19T08:07:08;25.60;54.00
43963;DHT22;29622;45.534;9.242;2022-08-19T08:12:29;25.70;54.10
43963;DHT22;29622;45.534;9.242;2022-08-19T08:17:31;26.10;53.90
43963;DHT22;29622;45.534;9.242;2022-08-19T08:22:32;26.30;53.60
43963;DHT22;29622;45.534;9.242;2022-08-19T08:27:51;26.50;53.50
43963;DHT22;29622;45.534;9.242;2022-08-19T08:32:52;26.70;53.20
43963;DHT22;29622;45.534;9.242;2022-08-19T08:37:54;27.00;52.90
43963;DHT22;29622;45.534;9.242;2022-08-19T08:53:45;27.40;52.50
43963;DHT22;29622;45.534;9.242;2022-08-19T08:58:58;27.60;52.30
43963;DHT22;29622;45.534;9.242;2022-08-19T09:04:00;27.60;52.20
43963;DHT22;29622;45.534;9.242;2022-08-19T09:09:14;27.70;52.10
43963;DHT22;29622;45.534;9.242;2022-08-19T09:14:37;27.50;52.30
43963;DHT22;29622;45.534;9.242;2022-08-19T09:19:55;27.70;52.00
43963;DHT22;29622;45.534;9.242;2022-08-19T09:24:56;27.90;51.80
43963;DHT22;29622;45.534;9.242;2022-08-19T09:29:57;28.10;51.50
43963;DHT22;29622;45.534;9.242;2022-08-19T09:34:58;28.20;51.30
43963;DHT22;29622;45.534;9.242;2022-08-19T09:40:01;28.30;51.20
43963;DHT22;29622;45.534;9.242;2022-08-19T09:45:02;28.40;51.00
43963;DHT22;29622;45.534;9.242;2022-08-19T09:50:04;28.60;50.90
43963;DHT22;29622;45.534;9.242;2022-08-19T09:55:06;28.70;50.80
43963;DHT22;29622;45.534;9.242;2022-08-19T10:00:08;28.60;50.70
43963;DHT22;29622;45.534;9.242;2022-08-19T10:05:09;28.50;50.90
43963;DHT22;29622;45.534;9.242;2022-08-19T10:10:28;28.40;50.90
43963;DHT22;29622;45.534;9.242;2022-08-19T10:15:28;28.10;51.10
43963;DHT22;29622;45.534;9.242;2022-08-19T10:20:29;27.70;51.30
43963;DHT22;29622;45.534;9.242;2022-08-19T10:25:31;27.50;51.60
43963;DHT22;29622;45.534;9.242;2022-08-19T10:30:32;27.40;51.70
43963;DHT22;29622;45.534;9.242;2022-08-19T10:35:32;27.60;51.50
43963;DHT22;29622;45.534;9.242;2022-08-19T10:40:33;27.80;51.10
43963;DHT22;29622;45.534;9.242;2022-08-19T10:45:33;27.90;50.80
43963;DHT22;29622;45.534;9.242;2022-08-19T10:50:34;28.10;50.80
43963;DHT22;29622;45.534;9.242;2022-08-19T10:55:55;28.30;50.50
43963;DHT22;29622;45.534;9.242;2022-08-19T11:01:15;28.60;50.10
43963;DHT22;29622;45.534;9.242;2022-08-19T11:06:15;28.80;49.70
43963;DHT22;29622;45.534;9.242;2022-08-19T11:11:16;28.60;50.10
43963;DHT22;29622;45.534;9.242;2022-08-19T11:16:18;28.40;50.10
43963;DHT22;29622;45.534;9.242;2022-08-19T11:21:20;28.30;50.00
43963;DHT22;29622;45.534;9.242;2022-08-19T11:26:22;28.20;50.20
43963;DHT22;29622;45.534;9.242;2022-08-19T11:31:24;28.10;50.20
43963;DHT22;29622;45.534;9.242;2022-08-19T11:36:25;27.70;50.30
43963;DHT22;29622;45.534;9.242;2022-08-19T11:41:26;27.70;50.50
43963;DHT22;29622;45.534;9.242;2022-08-19T11:46:27;27.70;50.00
43963;DHT22;29622;45.534;9.242;2022-08-19T11:51:30;27.20;50.00
43963;DHT22;29622;45.534;9.242;2022-08-19T11:56:31;26.90;50.10
43963;DHT22;29622;45.534;9.242;2022-08-19T12:01:32;27.00;50.30
43963;DHT22;29622;45.534;9.242;2022-08-19T12:06:33;27.00;50.10
43963;DHT22;29622;45.534;9.242;2022-08-19T12:11:34;27.10;50.00
43963;DHT22;29622;45.534;9.242;2022-08-19T12:16:37;27.30;49.70
43963;DHT22;29622;45.534;9.242;2022-08-19T12:21:37;27.40;49.70
43963;DHT22;29622;45.534;9.242;2022-08-19T12:26:38;27.40;49.40
43963;DHT22;29622;45.534;9.242;2022-08-19T12:31:39;27.40;49.40
43963;DHT22;29622;45.534;9.242;2022-08-19T12:36:40;27.60;49.30
43963;DHT22;29622;45.534;9.242;2022-08-19T12:41:40;27.70;48.90
43963;DHT22;29622;45.534;9.242;2022-08-19T12:46:41;27.70;48.90
43963;DHT22;29622;45.534;9.242;2022-08-19T12:51:42;27.90;48.70
43963;DHT22;29622;45.534;9.242;2022-08-19T12:56:43;28.20;48.60
43963;DHT22;29622;45.534;9.242;2022-08-19T13:01:45;28.40;48.20
43963;DHT22;29622;45.534;9.242;2022-08-19T13:06:46;28.60;48.20
43963;DHT22;29622;45.534;9.242;2022-08-19T13:11:46;28.60;48.10
43963;DHT22;29622;45.534;9.242;2022-08-19T13:16:47;28.50;48.10
43963;DHT22;29622;45.534;9.242;2022-08-19T13:21:49;28.70;48.10
43963;DHT22;29622;45.534;9.242;2022-08-19T13:26:49;28.90;47.80
43963;DHT22;29622;45.534;9.242;2022-08-19T13:31:50;28.90;47.60
43963;DHT22;29622;45.534;9.242;2022-08-19T13:37:09;28.80;47.60
43963;DHT22;29622;45.534;9.242;2022-08-19T13:42:10;28.80;47.60
43963;DHT22;29622;45.534;9.242;2022-08-19T13:47:13;28.80;47.70
43963;DHT22;29622;45.534;9.242;2022-08-19T13:52:15;28.90;47.70
43963;DHT22;29622;45.534;9.242;2022-08-19T13:57:15;29.30;47.50
43963;DHT22;29622;45.534;9.242;2022-08-19T14:02:16;29.50;47.20
43963;DHT22;29622;45.534;9.242;2022-08-19T14:07:17;29.60;47.00
43963;DHT22;29622;45.534;9.242;2022-08-19T14:12:20;29.90;46.90
43963;DHT22;29622;45.534;9.242;2022-08-19T14:17:21;29.90;46.40
43963;DHT22;29622;45.534;9.242;2022-08-19T14:22:23;30.00;46.30
43963;DHT22;29622;45.534;9.242;2022-08-19T14:27:23;30.00;46.00
43963;DHT22;29622;45.534;9.242;2022-08-19T14:32:25;30.10;45.90
43963;DHT22;29622;45.534;9.242;2022-08-19T14:37:27;30.10;45.20
43963;DHT22;29622;45.534;9.242;2022-08-19T14:42:27;30.00;45.30
43963;DHT22;29622;45.534;9.242;2022-08-19T14:47:28;30.20;45.20
43963;DHT22;29622;45.534;9.242;2022-08-19T14:52:28;30.30;45.00
43963;DHT22;29622;45.534;9.242;2022-08-19T14:57:29;30.20;44.70
43963;DHT22;29622;45.534;9.242;2022-08-19T15:02:29;30.00;44.50
43963;DHT22;29622;45.534;9.242;2022-08-19T15:07:30;29.90;44.60
43963;DHT22;29622;45.534;9.242;2022-08-19T15:12:31;29.90;44.20
43963;DHT22;29622;45.534;9.242;2022-08-19T15:17:32;29.70;44.20
43963;DHT22;29622;45.534;9.242;2022-08-19T15:22:33;29.50;43.70
43963;DHT22;29622;45.534;9.242;2022-08-19T15:27:35;29.30;43.70
43963;DHT22;29622;45.534;9.242;2022-08-19T15:32:37;29.10;43.80
43963;DHT22;29622;45.534;9.242;2022-08-19T15:37:38;29.00;43.80
43963;DHT22;29622;45.534;9.242;2022-08-19T15:42:38;29.00;43.90
43963;DHT22;29622;45.534;9.242;2022-08-19T15:47:41;29.40;43.90
43963;DHT22;29622;45.534;9.242;2022-08-19T15:57:45;30.40;43.20
43963;DHT22;29622;45.534;9.242;2022-08-19T16:03:05;31.10;42.80
43963;DHT22;29622;45.534;9.242;2022-08-19T16:08:24;31.90;42.20
43963;DHT22;29622;45.534;9.242;2022-08-19T16:13:24;32.20;41.80
43963;DHT22;29622;45.534;9.242;2022-08-19T16:18:25;32.10;42.00
43963;DHT22;29622;45.534;9.242;2022-08-19T16:23:25;32.30;42.00
43963;DHT22;29622;45.534;9.242;2022-08-19T16:28:26;32.60;41.80
43963;DHT22;29622;45.534;9.242;2022-08-19T16:33:27;32.90;41.50
43963;DHT22;29622;45.534;9.242;2022-08-19T16:38:27;33.00;41.40
43963;DHT22;29622;45.534;9.242;2022-08-19T16:43:28;32.80;41.60
43963;DHT22;29622;45.534;9.242;2022-08-19T16:48:30;32.70;41.80
43963;DHT22;29622;45.534;9.242;2022-08-19T16:53:32;32.50;41.90
43963;DHT22;29622;45.534;9.242;2022-08-19T16:58:32;32.20;42.30
43963;DHT22;29622;45.534;9.242;2022-08-19T17:03:33;32.20;42.40
43963;DHT22;29622;45.534;9.242;2022-08-19T17:08:34;32.10;42.50
43963;DHT22;29622;45.534;9.242;2022-08-19T17:13:34;32.00;42.60
43963;DHT22;29622;45.534;9.242;2022-08-19T17:18:35;31.90;42.70
43963;DHT22;29622;45.534;9.242;2022-08-19T17:23:36;31.80;42.80
43963;DHT22;29622;45.534;9.242;2022-08-19T17:28:37;31.70;42.90
43963;DHT22;29622;45.534;9.242;2022-08-19T17:33:37;31.50;43.00
43963;DHT22;29622;45.534;9.242;2022-08-19T17:38:38;31.40;43.10
43963;DHT22;29622;45.534;9.242;2022-08-19T17:43:39;31.30;43.20
43963;DHT22;29622;45.534;9.242;2022-08-19T17:48:40;31.20;43.20
43963;DHT22;29622;45.534;9.242;2022-08-19T17:53:42;31.20;43.30
43963;DHT22;29622;45.534;9.242;2022-08-19T17:58:42;30.90;43.40
43963;DHT22;29622;45.534;9.242;2022-08-19T18:03:43;30.80;43.60
43963;DHT22;29622;45.534;9.242;2022-08-19T18:08:44;30.80;43.70
43963;DHT22;29622;45.534;9.242;2022-08-19T18:13:45;30.50;43.80
43963;DHT22;29622;45.534;9.242;2022-08-19T18:18:46;30.10;44.10
43963;DHT22;29622;45.534;9.242;2022-08-19T18:23:47;29.90;44.30
43963;DHT22;29622;45.534;9.242;2022-08-19T18:28:48;29.70;44.40
43963;DHT22;29622;45.534;9.242;2022-08-19T18:33:50;29.50;44.60
43963;DHT22;29622;45.534;9.242;2022-08-19T18:38:54;29.50;44.60
43963;DHT22;29622;45.534;9.242;2022-08-19T18:44:15;29.40;44.40
43963;DHT22;29622;45.534;9.242;2022-08-19T18:49:34;29.10;44.60
43963;DHT22;29622;45.534;9.242;2022-08-19T18:54:34;28.90;44.90
43963;DHT22;29622;45.534;9.242;2022-08-19T18:59:36;28.50;45.00
43963;DHT22;29622;45.534;9.242;2022-08-19T19:04:36;28.30;45.20
43963;DHT22;29622;45.534;9.242;2022-08-19T19:09:38;28.10;45.30
43963;DHT22;29622;45.534;9.242;2022-08-19T19:14:39;28.00;45.40
43963;DHT22;29622;45.534;9.242;2022-08-19T19:19:41;27.90;45.60
43963;DHT22;29622;45.534;9.242;2022-08-19T19:24:42;27.80;45.50
43963;DHT22;29622;45.534;9.242;2022-08-19T19:29:46;27.70;45.60
43963;DHT22;29622;45.534;9.242;2022-08-19T19:34:46;27.50;45.80
43963;DHT22;29622;45.534;9.242;2022-08-19T19:39:47;27.40;45.90
43963;DHT22;29622;45.534;9.242;2022-08-19T19:44:49;27.50;45.90
43963;DHT22;29622;45.534;9.242;2022-08-19T19:49:50;27.70;45.60
43963;DHT22;29622;45.534;9.242;2022-08-19T19:54:51;27.60;45.90
43963;DHT22;29622;45.534;9.242;2022-08-19T19:59:55;27.50;45.90
43963;DHT22;29622;45.534;9.242;2022-08-19T20:04:56;27.30;46.10
43963;DHT22;29622;45.534;9.242;2022-08-19T20:09:58;27.20;46.20
43963;DHT22;29622;45.534;9.242;2022-08-19T20:14:58;27.20;46.20
43963;DHT22;29622;45.534;9.242;2022-08-19T20:19:59;27.20;46.20
43963;DHT22;29622;45.534;9.242;2022-08-19T20:24:59;27.40;46.10
43963;DHT22;29622;45.534;9.242;2022-08-19T20:30:00;27.30;46.20
43963;DHT22;29622;45.534;9.242;2022-08-19T20:35:04;26.90;46.50
43963;DHT22;29622;45.534;9.242;2022-08-19T20:40:06;26.80;46.90
43963;DHT22;29622;45.534;9.242;2022-08-19T20:45:09;26.70;46.90
43963;DHT22;29622;45.534;9.242;2022-08-19T20:50:10;26.60;47.00
43963;DHT22;29622;45.534;9.242;2022-08-19T20:55:11;26.50;47.20
43963;DHT22;29622;45.534;9.242;2022-08-19T21:00:12;26.40;47.50
43963;DHT22;29622;45.534;9.242;2022-08-19T21:05:14;26.40;47.50
43963;DHT22;29622;45.534;9.242;2022-08-19T21:10:14;26.30;47.60
43963;DHT22;29622;45.534;9.242;2022-08-19T21:15:15;26.30;47.70
43963;DHT22;29622;45.534;9.242;2022-08-19T21:20:16;26.20;47.70
43963;DHT22;29622;45.534;9.242;2022-08-19T21:25:17;26.10;48.00
43963;DHT22;29622;45.534;9.242;2022-08-19T21:30:18;26.00;48.10
43963;DHT22;29622;45.534;9.242;2022-08-19T21:35:19;26.00;48.10
43963;DHT22;29622;45.534;9.242;2022-08-19T21:40:19;26.00;48.20
43963;DHT22;29622;45.534;9.242;2022-08-19T21:45:20;26.00;48.10
43963;DHT22;29622;45.534;9.242;2022-08-19T21:50:22;26.00;48.30
43963;DHT22;29622;45.534;9.242;2022-08-19T21:55:22;25.80;48.50
43963;DHT22;29622;45.534;9.242;2022-08-19T22:00:23;25.60;48.80
43963;DHT22;29622;45.534;9.242;2022-08-19T22:05:24;25.40;48.90
43963;DHT22;29622;45.534;9.242;2022-08-19T22:10:26;25.30;49.10
43963;DHT22;29622;45.534;9.242;2022-08-19T22:15:27;25.20;49.20
43963;DHT22;29622;45.534;9.242;2022-08-19T22:20:29;25.10;49.30
43963;DHT22;29622;45.534;9.242;2022-08-19T22:25:31;25.20;49.40
43963;DHT22;29622;45.534;9.242;2022-08-19T22:30:33;25.20;49.40
43963;DHT22;29622;45.534;9.242;2022-08-19T22:35:35;25.20;49.30
43963;DHT22;29622;45.534;9.242;2022-08-19T22:40:38;25.10;49.50
43963;DHT22;29622;45.534;9.242;2022-08-19T22:45:39;25.00;49.60
43963;DHT22;29622;45.534;9.242;2022-08-19T22:50:40;25.00;49.80
43963;DHT22;29622;45.534;9.242;2022-08-19T22:55:41;24.90;49.90
43963;DHT22;29622;45.534;9.242;2022-08-19T23:00:42;24.80;50.00
43963;DHT22;29622;45.534;9.242;2022-08-19T23:05:42;24.80;50.10
43963;DHT22;29622;45.534;9.242;2022-08-19T23:10:43;24.70;50.20
43963;DHT22;29622;45.534;9.242;2022-08-19T23:15:44;24.60;50.30
43963;DHT22;29622;45.534;9.242;2022-08-19T23:20:45;24.50;50.40
43963;DHT22;29622;45.534;9.242;2022-08-19T23:25:47;24.50;50.60
43963;DHT22;29622;45.534;9.242;2022-08-19T23:30:48;24.40;50.70
43963;DHT22;29622;45.534;9.242;2022-08-19T23:35:49;24.40;50.90
43963;DHT22;29622;45.534;9.242;2022-08-19T23:40:51;24.70;50.60
43963;DHT22;29622;45.534;9.242;2022-08-19T23:45:52;24.80;50.40
43963;DHT22;29622;45.534;9.242;2022-08-19T23:50:53;24.70;50.40
43963;DHT22;29622;45.534;9.242;2022-08-19T23:55:56;24.40;50.80
